Startpagina
METAR-TAF:

METAR-TAF

Vliegvelden :

Liege Airport

Luik, België

breedte: 50-39N, lengte: 005-27E, hoogte: 186 m

Actueel weer

Dit bericht is 19 minuten geleden gemaakt, om 03:20 UTC
Wind 2 kt uit variabele richting
Temperatuur 19°C
Vochtigheid 73%
Druk 1019 hPa
Zicht 10 km of meer
geen wolken onder 1500 m en geen cumulonimbus

METAR: EBLG 260320Z VRB02KT CAVOK 19/14 Q1019 NOSIG

Tijdstip: 05:39 (03:39 UTC)

Verwachting

Dit bericht is 4 uur en het 26 minuten geleden gemaakt, om 23:13 UTC
Verwachting geldig van 26 om 00 UTC tot 27 om 06 UTC
Wind 2 kt uit variabele richting
Zicht 10 km of meer
geen wolken onder 1500 m en geen cumulonimbus

TAF: EBLG 252313Z 2600/2706 VRB02KT CAVOK

Waarnemingen en weersverwachtingen van meer dan 4000 vliegvelden (METAR en TAF).

De beschikbare stations zijn de gele en rode punten op de kaart.

Ga met uw muis naar het station om de naam te zien.

Klik dan om waarnemingen en weersverwachtingen te zien.

kaart wijzigen: klik op de groene knoppen met een zwart kruis om in te zoomen, op de groene knop met een streepje om uit te zoomen of op de groene pijlen voor aangrenzende kaarten.


METAR-TAF: